sensor_id;sensor_type;location;lat;lon;timestamp;P1;durP1;ratioP1;P2;durP2;ratioP2
1523;SDS011;755;53.658;10.118;2023-04-28T00:01:04;24.17;;;10.13;;
1523;SDS011;755;53.658;10.118;2023-04-28T00:11:09;22.30;;;11.73;;
1523;SDS011;755;53.658;10.118;2023-04-28T00:21:12;26.70;;;11.27;;
1523;SDS011;755;53.658;10.118;2023-04-28T01:04:02;22.25;;;10.20;;
1523;SDS011;755;53.658;10.118;2023-04-28T01:14:04;19.40;;;10.85;;
1523;SDS011;755;53.658;10.118;2023-04-28T01:24:08;21.08;;;9.93;;
1523;SDS011;755;53.658;10.118;2023-04-28T01:34:10;24.75;;;10.23;;
1523;SDS011;755;53.658;10.118;2023-04-28T01:44:13;20.38;;;9.93;;
1523;SDS011;755;53.658;10.118;2023-04-28T01:54:15;18.13;;;9.70;;
1523;SDS011;755;53.658;10.118;2023-04-28T02:04:19;18.70;;;9.85;;
1523;SDS011;755;53.658;10.118;2023-04-28T02:14:21;22.00;;;9.20;;
1523;SDS011;755;53.658;10.118;2023-04-28T02:24:24;20.77;;;9.80;;
1523;SDS011;755;53.658;10.118;2023-04-28T02:34:26;19.98;;;9.15;;
1523;SDS011;755;53.658;10.118;2023-04-28T02:44:29;19.52;;;9.40;;
1523;SDS011;755;53.658;10.118;2023-04-28T02:54:31;19.15;;;9.20;;
1523;SDS011;755;53.658;10.118;2023-04-28T03:04:37;17.13;;;9.32;;
1523;SDS011;755;53.658;10.118;2023-04-28T03:14:39;15.02;;;8.35;;
1523;SDS011;755;53.658;10.118;2023-04-28T03:24:42;15.27;;;7.93;;
1523;SDS011;755;53.658;10.118;2023-04-28T03:34:44;15.27;;;8.38;;
1523;SDS011;755;53.658;10.118;2023-04-28T03:44:47;17.00;;;8.52;;
1523;SDS011;755;53.658;10.118;2023-04-28T03:54:49;21.00;;;9.05;;
1523;SDS011;755;53.658;10.118;2023-04-28T04:04:52;19.00;;;9.73;;
1523;SDS011;755;53.658;10.118;2023-04-28T04:25:16;17.52;;;9.95;;
1523;SDS011;755;53.658;10.118;2023-04-28T04:35:18;21.30;;;9.93;;
1523;SDS011;755;53.658;10.118;2023-04-28T04:45:21;20.50;;;9.05;;
1523;SDS011;755;53.658;10.118;2023-04-28T04:55:23;29.50;;;9.88;;
1523;SDS011;755;53.658;10.118;2023-04-28T05:05:27;19.48;;;8.13;;
1523;SDS011;755;53.658;10.118;2023-04-28T05:15:29;20.67;;;8.82;;
1523;SDS011;755;53.658;10.118;2023-04-28T05:25:32;9.38;;;5.35;;
1523;SDS011;755;53.658;10.118;2023-04-28T05:35:34;16.40;;;5.03;;
1523;SDS011;755;53.658;10.118;2023-04-28T05:45:38;6.85;;;4.32;;
1523;SDS011;755;53.658;10.118;2023-04-28T05:55:40;11.10;;;4.50;;
1523;SDS011;755;53.658;10.118;2023-04-28T06:05:53;17.67;;;4.10;;
1523;SDS011;755;53.658;10.118;2023-04-28T06:15:56;8.88;;;3.70;;
1523;SDS011;755;53.658;10.118;2023-04-28T06:25:59;8.93;;;2.90;;
1523;SDS011;755;53.658;10.118;2023-04-28T06:36:01;9.30;;;3.42;;
1523;SDS011;755;53.658;10.118;2023-04-28T06:46:05;5.00;;;2.75;;
1523;SDS011;755;53.658;10.118;2023-04-28T06:56:07;5.63;;;2.33;;
1523;SDS011;755;53.658;10.118;2023-04-28T07:06:11;7.32;;;2.40;;
1523;SDS011;755;53.658;10.118;2023-04-28T07:16:13;4.68;;;2.00;;
1523;SDS011;755;53.658;10.118;2023-04-28T07:26:16;5.30;;;2.10;;
1523;SDS011;755;53.658;10.118;2023-04-28T07:36:18;11.10;;;2.75;;
1523;SDS011;755;53.658;10.118;2023-04-28T07:46:22;6.97;;;2.38;;
1523;SDS011;755;53.658;10.118;2023-04-28T07:56:24;3.60;;;1.92;;
1523;SDS011;755;53.658;10.118;2023-04-28T08:06:28;6.65;;;1.92;;
1523;SDS011;755;53.658;10.118;2023-04-28T08:16:30;6.40;;;2.22;;
1523;SDS011;755;53.658;10.118;2023-04-28T08:26:35;10.13;;;2.25;;
1523;SDS011;755;53.658;10.118;2023-04-28T08:36:37;6.82;;;2.10;;
1523;SDS011;755;53.658;10.118;2023-04-28T08:46:40;6.28;;;2.38;;
1523;SDS011;755;53.658;10.118;2023-04-28T08:56:43;14.57;;;2.75;;
1523;SDS011;755;53.658;10.118;2023-04-28T09:06:47;8.93;;;2.53;;
1523;SDS011;755;53.658;10.118;2023-04-28T09:16:49;8.52;;;2.60;;
1523;SDS011;755;53.658;10.118;2023-04-28T09:26:53;22.48;;;2.92;;
1523;SDS011;755;53.658;10.118;2023-04-28T09:36:55;7.97;;;2.30;;
1523;SDS011;755;53.658;10.118;2023-04-28T09:46:58;6.68;;;2.80;;
1523;SDS011;755;53.658;10.118;2023-04-28T09:57:00;7.60;;;3.13;;
1523;SDS011;755;53.658;10.118;2023-04-28T10:07:03;9.45;;;2.90;;
1523;SDS011;755;53.658;10.118;2023-04-28T10:17:06;6.07;;;2.75;;
1523;SDS011;755;53.658;10.118;2023-04-28T10:27:09;9.38;;;3.30;;
1523;SDS011;755;53.658;10.118;2023-04-28T10:37:12;8.63;;;3.30;;
1523;SDS011;755;53.658;10.118;2023-04-28T10:47:17;7.13;;;3.08;;
1523;SDS011;755;53.658;10.118;2023-04-28T10:57:19;8.38;;;3.20;;
1523;SDS011;755;53.658;10.118;2023-04-28T11:07:23;14.40;;;3.88;;
1523;SDS011;755;53.658;10.118;2023-04-28T11:17:33;9.05;;;2.78;;
1523;SDS011;755;53.658;10.118;2023-04-28T11:27:42;8.93;;;3.55;;
1523;SDS011;755;53.658;10.118;2023-04-28T11:37:44;6.15;;;3.15;;
1523;SDS011;755;53.658;10.118;2023-04-28T11:47:47;13.00;;;3.05;;
1523;SDS011;755;53.658;10.118;2023-04-28T12:08:27;9.25;;;3.95;;
1523;SDS011;755;53.658;10.118;2023-04-28T12:18:30;6.78;;;3.00;;
1523;SDS011;755;53.658;10.118;2023-04-28T12:28:37;7.97;;;3.38;;
1523;SDS011;755;53.658;10.118;2023-04-28T12:38:46;9.90;;;3.67;;
1523;SDS011;755;53.658;10.118;2023-04-28T12:48:49;11.70;;;3.90;;
1523;SDS011;755;53.658;10.118;2023-04-28T12:58:52;20.90;;;4.55;;
1523;SDS011;755;53.658;10.118;2023-04-28T13:08:56;12.23;;;4.32;;
1523;SDS011;755;53.658;10.118;2023-04-28T13:18:59;11.27;;;3.38;;
1523;SDS011;755;53.658;10.118;2023-04-28T13:29:03;7.82;;;3.83;;
1523;SDS011;755;53.658;10.118;2023-04-28T13:39:12;10.38;;;3.55;;
1523;SDS011;755;53.658;10.118;2023-04-28T13:49:15;8.75;;;3.40;;
1523;SDS011;755;53.658;10.118;2023-04-28T13:59:17;185.25;;;11.07;;
1523;SDS011;755;53.658;10.118;2023-04-28T14:09:21;8.38;;;3.00;;
1523;SDS011;755;53.658;10.118;2023-04-28T14:19:23;8.63;;;3.33;;
1523;SDS011;755;53.658;10.118;2023-04-28T14:29:27;12.00;;;3.20;;
1523;SDS011;755;53.658;10.118;2023-04-28T14:39:29;11.75;;;3.30;;
1523;SDS011;755;53.658;10.118;2023-04-28T14:49:32;12.23;;;3.70;;
1523;SDS011;755;53.658;10.118;2023-04-28T14:59:34;8.07;;;3.45;;
1523;SDS011;755;53.658;10.118;2023-04-28T15:09:38;11.05;;;4.32;;
1523;SDS011;755;53.658;10.118;2023-04-28T15:19:40;8.38;;;4.15;;
1523;SDS011;755;53.658;10.118;2023-04-28T15:29:46;5.97;;;3.70;;
1523;SDS011;755;53.658;10.118;2023-04-28T15:39:48;11.68;;;4.85;;
1523;SDS011;755;53.658;10.118;2023-04-28T15:49:52;10.68;;;4.80;;
1523;SDS011;755;53.658;10.118;2023-04-28T15:59:54;14.57;;;5.05;;
1523;SDS011;755;53.658;10.118;2023-04-28T16:09:58;12.43;;;5.07;;
1523;SDS011;755;53.658;10.118;2023-04-28T16:20:00;10.68;;;5.05;;
1523;SDS011;755;53.658;10.118;2023-04-28T16:30:06;12.73;;;5.60;;
1523;SDS011;755;53.658;10.118;2023-04-28T16:40:09;15.95;;;5.70;;
1523;SDS011;755;53.658;10.118;2023-04-28T16:50:14;19.83;;;6.15;;
1523;SDS011;755;53.658;10.118;2023-04-28T17:00:17;20.40;;;6.13;;
1523;SDS011;755;53.658;10.118;2023-04-28T17:10:22;15.73;;;6.05;;
1523;SDS011;755;53.658;10.118;2023-04-28T17:20:24;16.60;;;6.85;;
1523;SDS011;755;53.658;10.118;2023-04-28T17:30:28;17.42;;;7.30;;
1523;SDS011;755;53.658;10.118;2023-04-28T17:40:31;19.85;;;8.32;;
1523;SDS011;755;53.658;10.118;2023-04-28T17:50:35;20.75;;;9.55;;
1523;SDS011;755;53.658;10.118;2023-04-28T18:00:37;27.85;;;12.07;;
1523;SDS011;755;53.658;10.118;2023-04-28T18:10:40;18.50;;;10.60;;
1523;SDS011;755;53.658;10.118;2023-04-28T18:20:42;26.08;;;12.60;;
1523;SDS011;755;53.658;10.118;2023-04-28T18:30:46;26.52;;;12.65;;
1523;SDS011;755;53.658;10.118;2023-04-28T18:40:47;37.28;;;13.55;;
1523;SDS011;755;53.658;10.118;2023-04-28T18:50:52;28.10;;;15.15;;
1523;SDS011;755;53.658;10.118;2023-04-28T19:00:55;45.30;;;16.17;;
1523;SDS011;755;53.658;10.118;2023-04-28T19:10:58;35.38;;;16.65;;
1523;SDS011;755;53.658;10.118;2023-04-28T19:21:01;41.50;;;18.02;;
1523;SDS011;755;53.658;10.118;2023-04-28T19:31:06;41.10;;;18.35;;
1523;SDS011;755;53.658;10.118;2023-04-28T19:41:09;28.42;;;14.55;;
1523;SDS011;755;53.658;10.118;2023-04-28T19:51:13;27.52;;;14.98;;
1523;SDS011;755;53.658;10.118;2023-04-28T20:01:16;29.30;;;13.35;;
1523;SDS011;755;53.658;10.118;2023-04-28T20:11:19;25.88;;;13.50;;
1523;SDS011;755;53.658;10.118;2023-04-28T20:21:21;29.45;;;13.60;;
1523;SDS011;755;53.658;10.118;2023-04-28T20:31:25;29.50;;;13.32;;
1523;SDS011;755;53.658;10.118;2023-04-28T20:41:27;31.75;;;13.93;;
1523;SDS011;755;53.658;10.118;2023-04-28T20:51:31;32.60;;;14.45;;
1523;SDS011;755;53.658;10.118;2023-04-28T21:01:34;28.85;;;14.77;;
1523;SDS011;755;53.658;10.118;2023-04-28T21:11:38;30.23;;;14.25;;
1523;SDS011;755;53.658;10.118;2023-04-28T21:21:41;34.60;;;13.55;;
1523;SDS011;755;53.658;10.118;2023-04-28T21:31:45;27.42;;;14.20;;
1523;SDS011;755;53.658;10.118;2023-04-28T21:41:47;24.25;;;12.85;;
1523;SDS011;755;53.658;10.118;2023-04-28T21:51:50;22.45;;;12.65;;
1523;SDS011;755;53.658;10.118;2023-04-28T22:01:53;27.55;;;12.32;;
1523;SDS011;755;53.658;10.118;2023-04-28T22:11:57;22.75;;;11.70;;
1523;SDS011;755;53.658;10.118;2023-04-28T22:21:59;19.13;;;11.63;;
1523;SDS011;755;53.658;10.118;2023-04-28T22:32:03;23.95;;;10.32;;
1523;SDS011;755;53.658;10.118;2023-04-28T22:42:07;19.02;;;10.85;;
1523;SDS011;755;53.658;10.118;2023-04-28T22:52:13;27.80;;;11.98;;
1523;SDS011;755;53.658;10.118;2023-04-28T23:02:17;26.92;;;11.95;;
1523;SDS011;755;53.658;10.118;2023-04-28T23:12:21;26.55;;;12.63;;
1523;SDS011;755;53.658;10.118;2023-04-28T23:22:23;21.63;;;12.88;;
1523;SDS011;755;53.658;10.118;2023-04-28T23:32:27;24.48;;;12.40;;
1523;SDS011;755;53.658;10.118;2023-04-28T23:42:29;23.92;;;13.82;;
1523;SDS011;755;53.658;10.118;2023-04-28T23:52:32;30.70;;;14.82;;
